Latest Coastal Weather Observations for Rowley Shoals

IDW60701

Issued at 4:32 pm WST Saturday 30 May 2015 (issued every 10 minutes, with the page automatically refreshed every 10 minutes)

About coastal observations | Map of coastal stations | Coastal observations for WA | Marine services | Other Formats
Station Details ID: 200713 Name: ROWLEY SHOALS Lat: -17.52 Lon: 118.95 Height: 0.0 m
Data from the previous 72 hours. | See also: Recent months for locations in Western Australia
Date/Time
WST
Temp

°C
Wind Pressure Rain
since 9am
mm
Weather Cloud Vis
km
Sea
Height
m
Swell
Dir
 
Speed
knots
Gust
knots
hPa Trend Height
m
Period
s
Dir
30/04:30pm - SE 18 21 1013.6 - - - - - - - - -
30/04:00pm - SE 19 21 1013.4 - - - - - - - - -
30/03:30pm - SE 19 23 1013.2 - - - - - - - - -
30/03:00pm - ESE 19 22 1013.1 - - - - - - - - -
30/02:30pm - ESE 18 22 1013.1 - - - - - - - - -
30/02:00pm - SE 18 22 1013.1 - - - - - - - - -
30/01:30pm - SE 18 21 1013.4 - - - - - - - - -
30/01:00pm - SE 18 21 1013.6 - - - - - - - - -
30/12:30pm - SE 18 21 1014.0 - - - - - - - - -
30/12:00pm - SE 19 22 1014.4 - - - - - - - - -
30/11:30am - SE 18 21 1014.8 - - - - - - - - -
30/11:00am - SE 18 21 1015.0 - - - - - - - - -
30/10:30am - SE 18 22 1015.6 - - - - - - - - -
30/10:00am - SE 17 21 1015.9 - - - - - - - - -
30/09:30am - SE 18 21 1016.1 - - - - - - - - -
30/09:00am - SE 18 20 1016.2 - - - - - - - - -
30/08:30am - SE 16 19 1016.1 - - - - - - - - -
30/08:00am - SE 15 19 1015.9 - - - - - - - - -
30/07:30am - SSE 15 17 1015.6 - - - - - - - - -
30/07:00am - SSE 15 18 1015.5 - - - - - - - - -
30/06:30am - SSE 15 17 1015.3 - - - - - - - - -
30/06:00am - SSE 14 16 1015.1 - - - - - - - - -
30/05:30am - SSE 12 14 1014.9 - - - - - - - - -
30/05:00am - SSE 11 15 1014.8 - - - - - - - - -
30/04:30am - SSE 11 14 1014.7 - - - - - - - - -
30/04:00am - S 9 14 1014.6 - - - - - - - - -
30/03:30am - S 9 11 1014.6 - - - - - - - - -
30/03:00am - S 11 13 1014.6 - - - - - - - - -
30/02:30am - S 9 11 1015.0 - - - - - - - - -
30/02:00am - S 7 9 1015.2 - - - - - - - - -
30/01:30am - S 6 8 1015.6 - - - - - - - - -
30/01:00am - SSE 6 8 1015.8 - - - - - - - - -
30/12:30am - SSE 7 9 1015.9 - - - - - - - - -
30/12:00am - S 6 7 1016.2 - - - - - - - - -
 
Date/Time
WST
Temp

°C
Wind Pressure Rain
since 9am
mm
Weather Cloud Vis
km
Sea
Height
m
Swell
Dir
 
Speed
knots
Gust
knots
hPa Trend Height
m
Period
s
Dir
29/11:30pm - SSE 7 9 1016.3 - - - - - - - - -
29/11:00pm - SSE 8 11 1016.5 - - - - - - - - -
29/10:30pm - SSE 9 12 1016.5 - - - - - - - - -
29/10:00pm - SSE 9 13 1016.4 - - - - - - - - -
29/09:30pm - SSE 10 13 1016.4 - - - - - - - - -
29/09:00pm - SSE 10 12 1016.4 - - - - - - - - -
29/08:30pm - SSE 10 11 1016.1 - - - - - - - - -
29/08:00pm - SE 9 11 1016.0 - - - - - - - - -
29/07:30pm - SE 9 11 1015.6 - - - - - - - - -
29/07:00pm - SE 9 11 1015.5 - - - - - - - - -
29/06:30pm - SE 9 11 1015.0 - - - - - - - - -
29/06:00pm - SE 9 11 1014.7 - - - - - - - - -
29/05:30pm - SE 10 11 1014.2 - - - - - - - - -
29/05:00pm - SE 9 11 1014.0 - - - - - - - - -
29/04:30pm - SE 10 11 1013.7 - - - - - - - - -
29/04:00pm - SE 11 13 1013.5 - - - - - - - - -
29/03:30pm - SE 9 11 1013.2 - - - - - - - - -
29/03:00pm - SE 9 11 1013.1 - - - - - - - - -
29/02:30pm - SE 9 11 1013.2 - - - - - - - - -
29/02:00pm - SSE 9 11 1013.2 - - - - - - - - -
29/01:30pm - SE 8 10 1013.4 - - - - - - - - -
29/01:00pm - SE 8 10 1013.6 - - - - - - - - -
29/12:30pm - SE 8 10 1014.3 - - - - - - - - -
29/12:00pm - SE 8 10 1014.4 - - - - - - - - -
29/11:30am - SE 8 10 1014.9 - - - - - - - - -
29/11:00am - SE 10 11 1015.1 - - - - - - - - -
29/10:30am - SE 10 13 1015.4 - - - - - - - - -
29/10:00am - SSE 9 11 1015.5 - - - - - - - - -
29/09:30am - SE 9 11 1015.7 - - - - - - - - -
29/09:00am - SE 9 11 1015.6 - - - - - - - - -
29/08:30am - SSE 9 10 1015.6 - - - - - - - - -
29/08:00am - SSE 7 8 1015.3 - - - - - - - - -
29/07:30am - SSE 6 8 1014.8 - - - - - - - - -
29/07:00am - S 4 5 1014.6 - - - - - - - - -
29/06:30am - S 3 4 1014.0 - - - - - - - - -
29/06:00am - S 6 7 1013.8 - - - - - - - - -
29/05:30am - S 6 7 1013.9 - - - - - - - - -
29/05:00am - SSW 5 6 1013.7 - - - - - - - - -
29/04:30am - S 3 4 1013.4 - - - - - - - - -
29/04:00am - CALM 0 0 1013.3 - - - - - - - - -
29/03:30am - CALM 0 0 1013.5 - - - - - - - - -
29/03:00am - CALM 0 0 1013.5 - - - - - - - - -
29/02:30am - ENE 3 4 1013.3 - - - - - - - - -
29/02:00am - ENE 3 4 1013.5 - - - - - - - - -
29/01:30am - NE 5 6 1013.7 - - - - - - - - -
29/01:00am - NE 6 7 1013.9 - - - - - - - - -
29/12:30am - NE 5 6 1014.1 - - - - - - - - -
29/12:00am - NE 6 7 1014.3 - - - - - - - - -
 
Date/Time
WST
Temp

°C
Wind Pressure Rain
since 9am
mm
Weather Cloud Vis
km
Sea
Height
m
Swell
Dir
 
Speed
knots
Gust
knots
hPa Trend Height
m
Period
s
Dir
28/11:30pm - NE 7 7 1014.4 - - - - - - - - -
28/11:00pm - NE 6 7 1014.7 - - - - - - - - -
28/10:30pm - NE 7 9 1014.8 - - - - - - - - -
28/10:00pm - NE 6 7 1014.9 - - - - - - - - -
28/09:30pm - NE 6 6 1015.2 - - - - - - - - -
28/09:00pm - ENE 7 8 1015.2 - - - - - - - - -
28/08:30pm - ENE 8 9 1015.0 - - - - - - - - -
28/08:00pm - NE 7 8 1014.8 - - - - - - - - -
28/07:30pm - NE 8 9 1014.2 - - - - - - - - -
28/07:00pm - ENE 8 10 1013.9 - - - - - - - - -
28/06:30pm - ENE 8 10 1013.4 - - - - - - - - -
28/06:00pm - NE 10 11 1013.2 - - - - - - - - -
28/05:30pm - ENE 10 11 1012.9 - - - - - - - - -
28/05:00pm - ENE 10 13 1012.7 - - - - - - - - -
28/04:30pm - ENE 11 12 1012.5 - - - - - - - - -
28/04:00pm - ENE 11 13 1012.4 - - - - - - - - -
28/03:30pm - ENE 11 13 1012.3 - - - - - - - - -
28/03:00pm - E 11 13 1012.2 - - - - - - - - -
28/02:30pm - E 11 12 1012.2 - - - - - - - - -
28/02:00pm - E 11 13 1012.2 - - - - - - - - -
28/01:30pm - E 12 14 1012.4 - - - - - - - - -
28/01:00pm - E 12 14 1012.5 - - - - - - - - -
28/12:30pm - E 12 14 1013.0 - - - - - - - - -
28/12:00pm - E 14 16 1013.0 - - - - - - - - -
28/11:30am - E 14 16 1013.4 - - - - - - - - -
28/11:00am - E 16 18 1013.6 - - - - - - - - -
28/10:30am - E 14 17 1014.0 - - - - - - - - -
28/10:00am - E 14 16 1014.2 - - - - - - - - -
28/09:30am - E 13 15 1014.5 - - - - - - - - -
28/09:00am - ENE 10 11 1014.7 - - - - - - - - -
28/08:30am - ENE 9 10 1014.5 - - - - - - - - -
28/08:00am - ENE 7 7 1014.4 - - - - - - - - -
28/07:30am - ENE 6 7 1014.1 - - - - - - - - -
28/07:00am - ENE 4 5 1013.9 - - - - - - - - -
28/06:30am - E 5 6 1013.4 - - - - - - - - -
28/06:00am - ENE 5 7 1013.2 - - - - - - - - -
28/05:30am - NE 3 4 1013.2 - - - - - - - - -
28/05:00am - NE 4 4 1013.1 - - - - - - - - -
28/04:30am - N 3 4 1012.9 - - - - - - - - -
28/04:00am - NNW 4 5 1012.7 - - - - - - - - -
28/03:30am - NNW 5 6 1012.6 - - - - - - - - -
28/03:00am - NW 6 7 1012.6 - - - - - - - - -
28/02:30am - NNW 7 8 1012.9 - - - - - - - - -
28/02:00am - NNW 8 9 1013.1 - - - - - - - - -
28/01:30am - NNW 7 9 1013.3 - - - - - - - - -
28/01:00am - N 9 11 1013.3 - - - - - - - - -
28/12:30am - N 9 11 1013.4 - - - - - - - - -
28/12:00am - N 9 11 1013.5 - - - - - - - - -
 
Date/Time
WST
Temp

°C
Wind Pressure Rain
since 9am
mm
Weather Cloud Vis
km
Sea
Height
m
Swell
Dir
 
Speed
knots
Gust
knots
hPa Trend Height
m
Period
s
Dir
27/11:30pm - N 10 12 1013.5 - - - - - - - - -
27/11:00pm - N 10 11 1013.6 - - - - - - - - -
27/10:30pm - N 10 11 1013.7 - - - - - - - - -
27/10:00pm - N 8 9 1013.6 - - - - - - - - -
27/09:30pm - N 9 11 1013.7 - - - - - - - - -
27/09:00pm - N 10 12 1013.7 - - - - - - - - -
27/08:30pm - N 8 9 1013.8 - - - - - - - - -
27/08:00pm - N 9 10 1013.5 - - - - - - - - -
27/07:30pm - N 9 11 1013.4 - - - - - - - - -
27/07:00pm - N 9 10 1013.1 - - - - - - - - -
27/06:30pm - N 9 11 1012.8 - - - - - - - - -
27/06:00pm - N 8 10 1012.6 - - - - - - - - -
27/05:30pm - N 6 8 1012.1 - - - - - - - - -
27/05:00pm - N 7 9 1011.9 - - - - - - - - -

Other Formats:

Comma delimited format used in spreadsheet applications
http://www.bom.gov.au/fwo/IDW60701/IDW60701.94207.axf

JavaScript Object Notation format (JSON) in row-major order
http://www.bom.gov.au/fwo/IDW60701/IDW60701.94207.json